Time;durP1;ratioP1;P1;durP2;ratioP2;P2;SDS_P1;SDS_P2;PMS_P1;PMS_P2;Temp;Humidity;BMP_temperature;BMP_pressure;BME280_temperature;BME280_humidity;BME280_pressure;Samples;Min_cycle;Max_cycle;Signal;HPM_P1;HPM_P2
2023/07/28 00:02:06;;;;;;;2.80;1.90;;;;;;;16.93;91.39;99116.38;5110352;28;20207;-65
2023/07/28 00:04:33;;;;;;;5.37;1.97;;;;;;;16.86;90.74;99112.75;5110602;28;20198;-65
2023/07/28 00:06:59;;;;;;;3.03;1.70;;;;;;;16.90;91.13;99119.25;5110412;28;20194;-66
2023/07/28 00:09:26;;;;;;;3.33;2.03;;;;;;;16.79;91.10;99116.91;5110062;28;20720;-65
2023/07/28 00:11:54;;;;;;;2.87;1.80;;;;;;;16.73;91.84;99117.47;5110567;28;20197;-65
2023/07/28 00:14:22;;;;;;;3.73;2.07;;;;;;;16.73;93.07;99120.06;5110314;28;20209;-65
2023/07/28 00:16:49;;;;;;;4.20;2.23;;;;;;;16.71;92.22;99109.88;5110263;28;20236;-66
2023/07/28 00:19:16;;;;;;;4.07;2.10;;;;;;;16.68;92.81;99114.53;5110335;27;20197;-66
2023/07/28 00:21:43;;;;;;;4.10;2.23;;;;;;;16.66;92.73;99111.28;5109783;28;20228;-66
2023/07/28 00:24:09;;;;;;;4.07;2.00;;;;;;;16.69;93.08;99108.38;5110161;28;20209;-65
2023/07/28 00:26:36;;;;;;;4.23;2.20;;;;;;;16.57;93.81;99105.22;5109876;28;20575;-65
2023/07/28 00:29:06;;;;;;;3.37;1.93;;;;;;;16.59;93.31;99099.94;5109889;28;20318;-65
2023/07/28 00:31:33;;;;;;;3.00;1.80;;;;;;;16.58;93.78;99103.44;5109802;28;20269;-66
2023/07/28 00:34:00;;;;;;;2.80;1.73;;;;;;;16.51;94.10;99104.03;5110000;28;20197;-65
2023/07/28 00:36:27;;;;;;;3.27;1.83;;;;;;;16.50;94.64;99102.44;5110230;28;20417;-65
2023/07/28 00:38:55;;;;;;;3.20;2.00;;;;;;;16.49;94.39;99100.00;5109705;28;20590;-65
2023/07/28 00:41:21;;;;;;;4.07;2.00;;;;;;;16.49;94.57;99103.41;5110172;28;20205;-66
2023/07/28 00:43:48;;;;;;;3.70;2.23;;;;;;;16.47;95.21;99102.72;5109591;28;20217;-65
2023/07/28 00:46:17;;;;;;;3.67;1.90;;;;;;;16.39;94.93;99099.28;5109920;28;20208;-66
2023/07/28 00:48:45;;;;;;;4.87;2.30;;;;;;;16.31;95.26;99107.75;5109290;28;20205;-67
2023/07/28 00:51:13;;;;;;;3.60;2.00;;;;;;;16.29;94.85;99104.50;5109258;28;20209;-66
2023/07/28 00:53:40;;;;;;;4.63;2.37;;;;;;;16.39;95.33;99100.06;5109351;28;20209;-65
2023/07/28 00:56:07;;;;;;;4.07;2.40;;;;;;;16.35;96.17;99103.09;5109583;28;20197;-65
2023/07/28 00:58:34;;;;;;;4.57;2.17;;;;;;;16.34;95.32;99102.28;5109785;28;20254;-66
2023/07/28 01:01:00;;;;;;;3.40;2.07;;;;;;;16.33;97.32;99111.00;5107971;28;20203;-65
2023/07/28 01:03:29;;;;;;;4.10;2.33;;;;;;;16.24;96.38;99112.69;5107881;28;20202;-66
2023/07/28 01:06:06;;;;;;;2.80;1.80;;;;;;;16.29;96.71;99107.09;5109054;28;20225;-65
2023/07/28 01:08:39;;;;;;;4.30;2.10;;;;;;;16.31;97.09;99107.75;5109303;28;20269;-65
2023/07/28 01:11:06;;;;;;;4.77;2.37;;;;;;;16.23;97.21;99107.66;5109416;28;20244;-66
2023/07/28 01:13:34;;;;;;;3.57;2.17;;;;;;;16.21;97.44;99107.00;5109153;28;20198;-65
2023/07/28 01:16:01;;;;;;;2.57;1.70;;;;;;;16.30;97.28;99103.53;5109330;28;20297;-65
2023/07/28 01:18:29;;;;;;;3.50;2.17;;;;;;;16.30;98.10;99101.78;5109089;28;20189;-66
2023/07/28 01:20:59;;;;;;;3.07;2.00;;;;;;;16.24;97.23;99107.53;5108841;28;20200;-66
2023/07/28 01:23:41;;;;;;;2.80;1.70;;;;;;;16.24;98.42;99110.09;5108888;28;20221;-65
2023/07/28 01:26:11;;;;;;;4.30;2.37;;;;;;;16.25;98.29;99103.97;5108756;28;20229;-66
2023/07/28 01:28:41;;;;;;;3.87;2.20;;;;;;;16.24;98.75;99106.72;5109079;28;20642;-65
2023/07/28 01:31:09;;;;;;;3.73;2.30;;;;;;;16.25;98.81;99103.16;5108639;28;20609;-65
2023/07/28 01:33:36;;;;;;;3.20;2.03;;;;;;;16.24;99.48;99106.72;5108682;28;20204;-66
2023/07/28 01:36:04;;;;;;;4.13;2.33;;;;;;;16.22;99.06;99108.63;5108182;28;20216;-66
2023/07/28 01:38:31;;;;;;;4.50;1.93;;;;;;;16.15;99.03;99103.25;5108634;28;20200;-65
2023/07/28 01:40:58;;;;;;;4.57;2.20;;;;;;;16.11;99.12;99106.25;5108559;28;20201;-65
2023/07/28 01:43:25;;;;;;;3.00;1.97;;;;;;;16.04;98.80;99101.66;5108647;28;20204;-65
2023/07/28 01:45:53;;;;;;;3.97;2.33;;;;;;;15.98;99.22;99107.41;5108604;28;20205;-65
2023/07/28 01:48:20;;;;;;;3.57;2.33;;;;;;;15.93;99.43;99099.28;5108487;28;20293;-65
2023/07/28 01:50:47;;;;;;;5.23;2.33;;;;;;;15.94;100.00;99106.09;5108163;28;20644;-66
2023/07/28 01:53:13;;;;;;;4.03;2.13;;;;;;;15.88;100.00;99116.97;5108503;28;20201;-65
2023/07/28 01:55:40;;;;;;;3.73;2.30;;;;;;;15.83;100.00;99109.66;5108279;28;20196;-65
2023/07/28 01:58:06;;;;;;;3.67;2.30;;;;;;;15.78;100.00;99111.06;5108307;27;20204;-66
2023/07/28 02:00:33;;;;;;;4.00;2.10;;;;;;;15.76;100.00;99123.25;5108539;28;20194;-65
2023/07/28 02:03:03;;;;;;;3.70;2.07;;;;;;;15.73;100.00;99126.13;5108326;28;20204;-66
2023/07/28 02:05:29;;;;;;;5.37;2.20;;;;;;;15.69;100.00;99122.22;5108394;28;20486;-66
2023/07/28 02:07:56;;;;;;;3.03;2.00;;;;;;;15.71;100.00;99125.47;5108410;28;20210;-65
2023/07/28 02:10:24;;;;;;;3.40;2.07;;;;;;;15.71;100.00;99128.06;5108162;28;20245;-65
2023/07/28 02:12:51;;;;;;;3.30;2.03;;;;;;;15.70;100.00;99123.84;5108296;28;20205;-65
2023/07/28 02:15:18;;;;;;;5.10;2.20;;;;;;;15.71;100.00;99128.06;5108175;28;20205;-66
2023/07/28 02:17:45;;;;;;;4.17;2.20;;;;;;;15.71;100.00;99125.47;5107976;28;20204;-65
2023/07/28 02:20:15;;;;;;;6.77;2.33;;;;;;;15.69;100.00;99125.63;5108155;28;20197;-65
2023/07/28 02:22:43;;;;;;;3.87;2.30;;;;;;;15.66;100.00;99127.63;5108041;28;20201;-65
2023/07/28 02:25:10;;;;;;;3.83;2.23;;;;;;;15.61;100.00;99136.59;5108235;28;20193;-65
2023/07/28 02:27:37;;;;;;;4.07;2.47;;;;;;;15.58;100.00;99136.88;5108424;28;20386;-66
2023/07/28 02:30:05;;;;;;;3.70;2.33;;;;;;;15.54;100.00;99134.75;5108193;28;20228;-65
2023/07/28 02:32:32;;;;;;;4.57;2.27;;;;;;;15.51;100.00;99135.03;5108136;28;20201;-66
2023/07/28 02:34:59;;;;;;;3.73;2.20;;;;;;;15.47;100.00;99137.03;5108167;28;20218;-65
2023/07/28 02:37:27;;;;;;;4.70;2.27;;;;;;;15.43;100.00;99143.44;5108200;28;20200;-66
2023/07/28 02:39:54;;;;;;;3.97;2.37;;;;;;;15.40;100.00;99143.72;5108481;28;20224;-66
2023/07/28 02:42:21;;;;;;;3.47;2.20;;;;;;;15.38;100.00;99145.63;5107829;28;20209;-66
2023/07/28 02:44:48;;;;;;;4.57;2.60;;;;;;;15.38;100.00;99150.78;5107746;28;20205;-65
2023/07/28 02:47:15;;;;;;;3.90;2.37;;;;;;;15.36;100.00;99155.28;5108655;28;20202;-66
2023/07/28 02:49:42;;;;;;;5.27;2.50;;;;;;;15.32;100.00;99146.19;5111668;28;20614;-65
2023/07/28 02:52:09;;;;;;;5.43;2.47;;;;;;;15.26;100.00;99146.75;5111996;28;20665;-66
2023/07/28 02:54:37;;;;;;;4.77;2.47;;;;;;;15.20;100.00;99139.56;5111741;28;20673;-66
2023/07/28 02:57:04;;;;;;;4.13;2.40;;;;;;;15.16;100.00;99141.63;5112316;28;20201;-66
2023/07/28 02:59:31;;;;;;;5.07;2.93;;;;;;;15.15;100.00;99145.97;5111817;28;20197;-66
2023/07/28 03:01:58;;;;;;;3.43;2.10;;;;;;;15.15;100.00;99145.97;5111671;28;20711;-66
2023/07/28 03:04:24;;;;;;;3.30;2.10;;;;;;;15.12;100.00;99151.38;5111593;28;20205;-65
2023/07/28 03:06:51;;;;;;;4.40;2.40;;;;;;;15.11;100.00;99154.91;5111431;28;20219;-66
2023/07/28 03:09:18;;;;;;;3.97;2.40;;;;;;;15.06;100.00;99157.06;5111626;28;20639;-65
2023/07/28 03:11:46;;;;;;;4.23;2.47;;;;;;;15.02;100.00;99154.94;5111292;28;20233;-65
2023/07/28 03:14:13;;;;;;;5.70;2.10;;;;;;;14.94;100.00;99160.75;5111715;28;20201;-66
2023/07/28 03:16:41;;;;;;;4.40;2.53;;;;;;;14.93;100.00;99156.56;5111623;28;20209;-66
2023/07/28 03:19:07;;;;;;;3.40;2.10;;;;;;;14.91;100.00;99155.88;5111232;28;20239;-65
2023/07/28 03:21:34;;;;;;;6.10;2.77;;;;;;;14.88;100.00;99156.16;5111147;28;20236;-65
2023/07/28 03:24:01;;;;;;;3.87;2.27;;;;;;;14.86;100.00;99165.75;5111189;28;20422;-65
2023/07/28 03:26:28;;;;;;;3.33;2.20;;;;;;;14.82;100.00;99154.13;5111153;28;20562;-66
2023/07/28 03:28:56;;;;;;;3.33;2.03;;;;;;;14.83;100.00;99155.75;5111221;28;20201;-66
2023/07/28 03:31:23;;;;;;;3.47;2.20;;;;;;;14.84;100.00;99149.66;5111188;28;20600;-66
2023/07/28 03:33:50;;;;;;;4.33;2.40;;;;;;;14.80;100.00;99150.88;5111199;28;20208;-65
2023/07/28 03:36:19;;;;;;;5.20;2.63;;;;;;;14.80;100.00;99149.09;5110987;28;20681;-65
2023/07/28 03:38:46;;;;;;;5.63;2.70;;;;;;;14.77;100.00;99161.44;5111073;28;20682;-65
2023/07/28 03:41:13;;;;;;;4.67;2.70;;;;;;;14.78;100.00;99168.22;5110762;28;20568;-65
2023/07/28 03:43:40;;;;;;;5.77;2.30;;;;;;;14.81;100.00;99165.38;5110742;28;20666;-66
2023/07/28 03:46:09;;;;;;;4.10;2.50;;;;;;;14.76;100.00;99162.41;5110940;28;20237;-65
2023/07/28 03:48:36;;;;;;;4.10;2.37;;;;;;;14.71;100.00;99162.78;5110652;28;20220;-66
2023/07/28 03:51:02;;;;;;;7.63;2.20;;;;;;;14.69;100.00;99169.84;5110713;27;20228;-66
2023/07/28 03:53:29;;;;;;;4.20;2.23;;;;;;;14.66;100.00;99167.50;5110948;28;20198;-66
2023/07/28 03:55:58;;;;;;;3.90;2.50;;;;;;;14.68;100.00;99163.88;5110598;28;20690;-66
2023/07/28 03:58:25;;;;;;;3.77;2.13;;;;;;;14.61;100.00;99165.38;5110369;28;20239;-66
2023/07/28 04:00:52;;;;;;;4.13;2.50;;;;;;;14.64;100.00;99179.72;5110682;28;20201;-65
2023/07/28 04:03:20;;;;;;;6.23;2.53;;;;;;;14.61;100.00;99173.09;5110278;28;20593;-65
2023/07/28 04:05:47;;;;;;;6.00;2.70;;;;;;;14.57;100.00;99174.28;5110128;28;20257;-65
2023/07/28 04:08:14;;;;;;;6.57;2.50;;;;;;;14.56;100.00;99170.09;5110225;28;20197;-66
2023/07/28 04:10:41;;;;;;;6.53;2.67;;;;;;;14.59;100.00;99169.81;5110175;28;20232;-66
2023/07/28 04:13:09;;;;;;;4.63;2.30;;;;;;;14.66;100.00;99170.94;5110419;28;20194;-66
2023/07/28 04:15:36;;;;;;;5.53;2.70;;;;;;;14.76;100.00;99182.97;5110063;28;20201;-66
2023/07/28 04:18:03;;;;;;;5.30;2.73;;;;;;;14.87;100.00;99178.50;5109689;28;20678;-67
2023/07/28 04:20:31;;;;;;;5.27;2.50;;;;;;;14.92;100.00;99186.66;5109191;28;20205;-66
2023/07/28 04:22:58;;;;;;;3.87;2.37;;;;;;;14.93;100.00;99188.25;5110295;28;20198;-66
2023/07/28 04:51:14;;;;;;;2.10;1.90;;;;;;;17.13;92.53;99216.91;5126057;27;20566;-65
2023/07/28 04:53:41;;;;;;;4.47;2.10;;;;;;;17.19;91.76;99217.13;5125963;27;20694;-65
2023/07/28 04:56:08;;;;;;;2.40;2.00;;;;;;;17.33;92.60;99218.34;5125911;27;20522;-66
2023/07/28 04:58:35;;;;;;;3.43;1.70;;;;;;;17.47;91.61;99218.78;5125844;27;20239;-65
2023/07/28 05:01:02;;;;;;;2.50;1.90;;;;;;;17.61;91.06;99225.97;5126166;27;20202;-66
2023/07/28 05:03:29;;;;;;;2.40;1.80;;;;;;;17.77;91.44;99218.31;5125683;27;20203;-65
2023/07/28 05:05:56;;;;;;;2.60;1.70;;;;;;;17.94;88.63;99215.84;5125649;27;20204;-65
2023/07/28 05:08:23;;;;;;;2.63;2.00;;;;;;;18.09;87.13;99215.09;5125659;27;20212;-65
2023/07/28 05:10:50;;;;;;;2.13;1.80;;;;;;;18.21;86.79;99219.97;5125848;27;20356;-65
2023/07/28 05:13:17;;;;;;;2.70;2.10;;;;;;;18.47;88.71;99223.31;5124263;28;20221;-65
2023/07/28 05:15:44;;;;;;;2.03;1.70;;;;;;;18.66;87.08;99216.22;5125604;27;20226;-65
2023/07/28 05:18:11;;;;;;;2.83;1.80;;;;;;;18.78;84.32;99218.38;5125558;27;20205;-65
2023/07/28 05:20:37;;;;;;;3.17;2.00;;;;;;;18.93;80.93;99207.38;5125470;27;20204;-65
2023/07/28 05:23:04;;;;;;;3.37;1.87;;;;;;;19.15;83.24;99214.50;5125563;27;20577;-65
2023/07/28 05:25:32;;;;;;;3.43;1.93;;;;;;;19.31;77.39;99218.03;5125392;27;20195;-65
2023/07/28 05:27:59;;;;;;;2.17;1.70;;;;;;;19.51;77.32;99214.13;5125469;27;20574;-65
2023/07/28 05:30:26;;;;;;;2.40;1.80;;;;;;;19.63;76.54;99219.78;5125312;27;20235;-65
2023/07/28 05:32:55;;;;;;;3.13;1.90;;;;;;;19.90;79.84;99216.03;5125225;27;20495;-65
2023/07/28 05:35:21;;;;;;;3.23;1.70;;;;;;;19.94;74.41;99221.69;5125282;27;20217;-64
2023/07/28 05:37:48;;;;;;;1.93;1.73;;;;;;;20.06;76.51;99221.13;5125032;27;20203;-64
2023/07/28 05:40:15;;;;;;;2.20;1.90;;;;;;;20.18;72.91;99223.34;5125305;27;20192;-64
2023/07/28 05:42:43;;;;;;;1.93;1.63;;;;;;;20.31;73.76;99221.84;5124940;27;20705;-64
2023/07/28 05:45:11;;;;;;;2.00;1.80;;;;;;;20.40;73.93;99222.59;5125208;27;20202;-65
2023/07/28 05:47:38;;;;;;;3.43;1.77;;;;;;;20.46;70.55;99215.91;5124893;27;20215;-65
2023/07/28 05:50:06;;;;;;;10.63;2.33;;;;;;;20.58;72.42;99215.38;5122648;27;20247;-65
2023/07/28 05:52:33;;;;;;;2.97;1.87;;;;;;;20.81;72.66;99214.59;5111234;28;20204;-64
2023/07/28 05:55:00;;;;;;;10.03;2.73;;;;;;;20.87;68.85;99229.47;5111367;28;20201;-65
2023/07/28 05:57:27;;;;;;;3.37;1.80;;;;;;;21.00;70.54;99234.91;5111145;28;20204;-64
2023/07/28 05:59:55;;;;;;;7.03;2.20;;;;;;;21.10;70.96;99231.25;5110967;28;20200;-66
2023/07/28 06:02:22;;;;;;;2.30;1.60;;;;;;;21.31;71.48;99225.38;5110984;28;20197;-66
2023/07/28 06:04:48;;;;;;;2.57;2.17;;;;;;;21.45;67.60;99228.03;5110829;28;20205;-67
2023/07/28 06:07:15;;;;;;;4.03;2.08;;;;;;;21.51;67.37;99220.53;5110783;28;20551;-67
2023/07/28 06:09:42;;;;;;;6.97;2.15;;;;;;;21.56;65.31;99228.59;5110839;28;20225;-62
2023/07/28 06:12:09;;;;;;;2.97;1.98;;;;;;;21.81;66.68;99229.13;5111108;28;20265;-59
2023/07/28 06:14:36;;;;;;;3.08;1.80;;;;;;;22.05;67.88;99233.25;5110749;28;20573;-64
2023/07/28 06:17:05;;;;;;;3.45;2.05;;;;;;;22.20;63.90;99228.06;5110968;27;20193;-64
2023/07/28 06:19:32;;;;;;;3.55;1.90;;;;;;;22.43;67.71;99228.75;5110528;28;20193;-64
2023/07/28 06:21:59;;;;;;;2.47;1.90;;;;;;;22.59;63.26;99225.88;5110924;28;20198;-64
2023/07/28 06:24:25;;;;;;;3.33;2.10;;;;;;;22.77;61.29;99217.63;5110438;28;20585;-64
2023/07/28 06:26:52;;;;;;;2.72;1.83;;;;;;;23.00;63.59;99222.69;5110417;28;20197;-64
2023/07/28 06:29:19;;;;;;;2.17;1.70;;;;;;;23.13;61.78;99229.84;5110306;28;20229;-64
2023/07/28 06:31:46;;;;;;;2.10;1.70;;;;;;;23.27;59.87;99223.72;5110475;28;20203;-64
2023/07/28 06:34:14;;;;;;;2.72;1.92;;;;;;;23.21;56.44;99214.06;5110369;28;20424;-64
2023/07/28 06:36:41;;;;;;;2.03;1.70;;;;;;;23.42;61.87;99212.38;5110341;28;20575;-63
2023/07/28 06:39:08;;;;;;;2.03;1.52;;;;;;;23.72;64.51;99211.19;5110387;28;20231;-64
2023/07/28 06:41:35;;;;;;;2.15;1.90;;;;;;;23.92;62.30;99215.72;5110226;28;20201;-64
2023/07/28 06:44:02;;;;;;;2.55;2.00;;;;;;;24.04;62.56;99219.38;5110345;28;20201;-63
2023/07/28 06:46:29;;;;;;;1.95;1.63;;;;;;;24.20;62.91;99220.03;5110234;28;20201;-63
2023/07/28 06:48:56;;;;;;;2.65;1.90;;;;;;;24.33;65.06;99217.47;5110072;28;20197;-64
2023/07/28 06:51:24;;;;;;;4.72;1.80;;;;;;;24.65;64.17;99217.78;5110421;28;20272;-63
2023/07/28 06:53:51;;;;;;;2.28;1.77;;;;;;;24.74;61.82;99214.75;5109996;28;20213;-63
2023/07/28 06:56:18;;;;;;;2.42;1.70;;;;;;;24.89;56.13;99217.19;5109838;28;20572;-63
2023/07/28 06:58:45;;;;;;;3.75;1.67;;;;;;;24.98;54.26;99226.44;5109787;28;20686;-63
2023/07/28 07:01:12;;;;;;;1.60;1.50;;;;;;;25.15;58.63;99231.31;5109770;28;20201;-63
2023/07/28 07:03:39;;;;;;;2.50;1.70;;;;;;;25.15;51.94;99231.31;5108775;28;20229;-63
2023/07/28 07:06:06;;;;;;;1.48;1.33;;;;;;;25.41;56.02;99223.44;5109534;28;20218;-63
2023/07/28 07:08:34;;;;;;;1.70;1.60;;;;;;;25.49;53.27;99223.22;5109997;28;20222;-63
2023/07/28 07:11:01;;;;;;;2.78;1.50;;;;;;;25.61;51.77;99226.03;5109837;28;20235;-64
2023/07/28 07:13:28;;;;;;;1.70;1.58;;;;;;;25.49;49.54;99233.69;5109733;28;20198;-63
2023/07/28 07:15:55;;;;;;;51.88;22.90;;;;;;;25.42;49.81;99232.88;5109467;28;20193;-66
2023/07/28 07:18:22;;;;;;;14.38;7.90;;;;;;;25.65;55.93;99234.28;5109478;28;20696;-63
2023/07/28 07:20:49;;;;;;;2.25;1.90;;;;;;;25.67;49.82;99234.88;5109650;28;20670;-65
2023/07/28 07:23:15;;;;;;;2.13;1.60;;;;;;;25.75;51.61;99232.03;5109410;28;20558;-63
2023/07/28 07:25:44;;;;;;;1.65;1.55;;;;;;;25.77;50.35;99230.00;5109227;28;20197;-64
2023/07/28 07:28:10;;;;;;;2.80;2.00;;;;;;;25.83;49.58;99234.47;5109243;28;20194;-64
2023/07/28 07:30:37;;;;;;;1.73;1.63;;;;;;;26.01;53.00;99233.00;5109062;28;20233;-64
2023/07/28 07:33:04;;;;;;;5.78;3.53;;;;;;;26.19;51.36;99243.59;5109168;28;20201;-64
2023/07/28 07:35:31;;;;;;;1.95;1.70;;;;;;;26.45;49.32;99241.88;5109309;28;20201;-64
2023/07/28 07:37:58;;;;;;;1.85;1.60;;;;;;;26.45;49.10;99236.63;5109701;28;20300;-63
2023/07/28 07:40:25;;;;;;;2.90;1.52;;;;;;;26.48;53.62;99241.44;5109035;28;20194;-64
2023/07/28 07:42:53;;;;;;;2.65;1.70;;;;;;;26.44;46.62;99246.28;5109200;28;20216;-64
2023/07/28 07:45:20;;;;;;;1.60;1.50;;;;;;;26.38;44.96;99242.72;5108896;28;20595;-63
2023/07/28 07:47:47;;;;;;;1.75;1.60;;;;;;;26.48;51.44;99233.59;5108855;28;20204;-63
2023/07/28 07:50:14;;;;;;;1.63;1.52;;;;;;;26.43;47.24;99235.00;5108625;28;20237;-64
2023/07/28 07:52:41;;;;;;;1.83;1.65;;;;;;;26.68;51.23;99236.91;5108660;28;20247;-64
2023/07/28 07:55:09;;;;;;;1.90;1.65;;;;;;;26.72;42.82;99243.34;5109038;28;20220;-62
2023/07/28 07:57:36;;;;;;;2.00;1.60;;;;;;;26.91;47.62;99243.41;5108732;28;20204;-63
2023/07/28 08:00:06;;;;;;;1.90;1.60;;;;;;;26.98;44.55;99241.56;5108776;28;20208;-63
2023/07/28 08:02:32;;;;;;;2.28;1.50;;;;;;;26.89;43.43;99245.47;5108570;28;20205;-64
2023/07/28 08:04:59;;;;;;;1.88;1.48;;;;;;;26.96;42.35;99244.38;5108628;28;20208;-64
2023/07/28 08:07:27;;;;;;;1.88;1.60;;;;;;;27.03;43.00;99245.13;5108612;28;20760;-63
2023/07/28 08:09:53;;;;;;;1.77;1.65;;;;;;;27.13;42.58;99249.91;5108411;28;20229;-64
2023/07/28 08:12:21;;;;;;;2.22;1.20;;;;;;;27.47;43.47;99234.69;5108968;28;20277;-65
2023/07/28 08:14:48;;;;;;;1.73;1.33;;;;;;;27.77;44.83;99235.56;5108137;28;20205;-64
2023/07/28 08:17:16;;;;;;;2.67;1.50;;;;;;;27.83;39.17;99238.38;5108491;28;20201;-65
2023/07/28 08:19:43;;;;;;;1.50;1.40;;;;;;;28.15;45.44;99242.44;5108440;28;20220;-63
2023/07/28 08:22:10;;;;;;;1.70;1.50;;;;;;;28.17;39.76;99245.66;5108609;28;20219;-64
2023/07/28 08:24:37;;;;;;;2.28;1.52;;;;;;;28.16;40.68;99241.44;5107700;28;20289;-63
2023/07/28 08:27:04;;;;;;;26.55;14.32;;;;;;;28.32;43.48;99241.84;5108347;28;20248;-64
2023/07/28 08:29:30;;;;;;;1.90;1.70;;;;;;;28.18;39.47;99252.50;5108292;28;20201;-63
2023/07/28 08:31:57;;;;;;;4.70;2.72;;;;;;;28.09;39.66;99248.59;5107742;28;20208;-63
2023/07/28 08:34:25;;;;;;;4.55;2.03;;;;;;;28.18;40.84;99246.47;5108240;28;20193;-63
2023/07/28 08:36:52;;;;;;;2.10;1.80;;;;;;;28.44;40.88;99240.88;5108389;28;20767;-63
2023/07/28 08:39:19;;;;;;;3.13;2.13;;;;;;;28.94;43.18;99245.00;5108083;28;20205;-64
2023/07/28 08:41:46;;;;;;;2.22;1.58;;;;;;;29.16;38.72;99247.13;5108268;28;20241;-65
2023/07/28 08:44:13;;;;;;;1.83;1.40;;;;;;;29.22;41.93;99240.94;5108490;28;20201;-64
2023/07/28 08:46:40;;;;;;;2.00;1.70;;;;;;;29.36;37.83;99241.53;5108208;28;20333;-64
2023/07/28 08:49:07;;;;;;;7.93;3.55;;;;;;;29.41;40.73;99229.28;5108067;28;20798;-64
2023/07/28 08:51:35;;;;;;;2.63;1.50;;;;;;;29.44;40.52;99228.81;5108085;28;20229;-64
2023/07/28 08:54:02;;;;;;;1.52;1.42;;;;;;;29.58;41.23;99223.28;5108130;28;20682;-64
2023/07/28 08:56:29;;;;;;;1.60;1.50;;;;;;;29.67;38.77;99227.19;5108102;28;20204;-64
2023/07/28 08:59:00;;;;;;;1.40;1.30;;;;;;;29.09;35.25;99227.00;5108262;28;20662;-64
2023/07/28 09:01:27;;;;;;;1.60;1.50;;;;;;;28.95;36.43;99230.81;5108195;28;20197;-64
2023/07/28 09:03:54;;;;;;;2.53;1.50;;;;;;;28.78;39.84;99224.63;5108290;28;20220;-64
2023/07/28 09:06:30;;;;;;;1.50;1.40;;;;;;;28.83;38.74;99216.84;5108186;28;20551;-64
2023/07/28 09:08:59;;;;;;;1.52;1.40;;;;;;;29.20;39.47;99227.19;5108400;28;20204;-64
2023/07/28 09:11:27;;;;;;;1.27;1.17;;;;;;;29.37;37.00;99222.84;5107883;28;20221;-64
2023/07/28 09:13:56;;;;;;;2.67;1.70;;;;;;;29.38;36.28;99221.84;5108044;28;20587;-64
2023/07/28 09:16:24;;;;;;;1.48;1.38;;;;;;;29.55;34.68;99228.00;5108268;28;20197;-64
2023/07/28 09:18:51;;;;;;;3.15;1.40;;;;;;;29.16;33.09;99226.88;5107729;28;20263;-64
2023/07/28 09:21:20;;;;;;;1.63;1.50;;;;;;;29.37;38.70;99214.94;5107716;28;20222;-64
2023/07/28 09:23:47;;;;;;;1.40;1.30;;;;;;;29.73;39.51;99215.72;5107760;28;20456;-64
2023/07/28 09:26:16;;;;;;;1.63;1.42;;;;;;;29.69;37.86;99214.59;5109644;28;20213;-64
2023/07/28 09:28:43;;;;;;;1.60;1.50;;;;;;;29.83;35.47;99221.22;5111649;28;20205;-64
2023/07/28 09:31:11;;;;;;;1.50;1.20;;;;;;;29.95;36.94;99221.16;5111646;28;20233;-64
2023/07/28 09:33:42;;;;;;;1.50;1.30;;;;;;;30.08;36.04;99228.00;5111615;27;20731;-64
2023/07/28 09:36:10;;;;;;;8.13;1.60;;;;;;;30.09;36.86;99219.06;5111440;28;20725;-64
2023/07/28 09:38:40;;;;;;;2.47;1.58;;;;;;;29.93;33.28;99210.06;5111624;28;20585;-64
2023/07/28 09:41:10;;;;;;;1.33;1.23;;;;;;;30.05;33.58;99213.47;5111496;28;20313;-64
2023/07/28 09:43:39;;;;;;;1.30;1.20;;;;;;;30.11;33.06;99214.38;5111637;28;20197;-64
2023/07/28 09:46:09;;;;;;;2.53;1.42;;;;;;;30.41;36.30;99212.31;5111391;28;20229;-64
2023/07/28 09:48:38;;;;;;;1.40;1.30;;;;;;;30.59;36.30;99210.47;5111329;28;20197;-64
2023/07/28 09:51:11;;;;;;;1.27;1.17;;;;;;;30.92;35.63;99203.63;5111309;28;20233;-64
2023/07/28 09:53:46;;;;;;;2.38;1.50;;;;;;;30.66;33.33;99204.03;5111315;28;20686;-64
2023/07/28 09:56:16;;;;;;;1.58;1.25;;;;;;;30.86;36.00;99193.03;5111154;28;20209;-64
2023/07/28 09:58:51;;;;;;;1.50;1.40;;;;;;;30.83;33.80;99193.47;5111028;28;20210;-64
2023/07/28 10:01:18;;;;;;;1.60;1.42;;;;;;;30.85;33.41;99185.31;5111125;28;20228;-64
2023/07/28 10:03:45;;;;;;;1.88;1.40;;;;;;;31.01;32.94;99192.44;5110956;28;20198;-64
2023/07/28 10:06:13;;;;;;;3.03;1.58;;;;;;;30.36;32.14;99190.31;5111170;28;20210;-64
2023/07/28 10:08:41;;;;;;;1.85;1.48;;;;;;;30.26;33.28;99177.75;5110834;28;20194;-63
2023/07/28 10:11:08;;;;;;;1.40;1.30;;;;;;;30.40;36.48;99181.69;5110752;28;20705;-64
2023/07/28 10:13:41;;;;;;;1.95;1.42;;;;;;;30.42;32.85;99176.97;5110860;28;20702;-64
2023/07/28 10:16:10;;;;;;;1.40;1.30;;;;;;;30.30;35.01;99176.22;5110752;28;20201;-64
2023/07/28 10:18:37;;;;;;;1.40;1.30;;;;;;;30.33;34.06;99183.66;5110672;27;20201;-65
2023/07/28 10:21:12;;;;;;;1.88;1.58;;;;;;;30.56;34.74;99166.91;5110624;27;20292;-64
2023/07/28 10:23:40;;;;;;;1.88;1.40;;;;;;;30.37;33.87;99174.25;5110447;28;20742;-65
2023/07/28 10:26:07;;;;;;;2.00;1.30;;;;;;;30.65;36.97;99162.81;5110704;28;20810;-64
2023/07/28 10:28:38;;;;;;;2.05;1.30;;;;;;;30.99;36.95;99154.13;5110570;28;20208;-64
2023/07/28 10:31:06;;;;;;;1.65;1.50;;;;;;;31.07;32.40;99161.63;5110342;28;20221;-64
2023/07/28 10:33:36;;;;;;;1.48;1.27;;;;;;;31.19;32.02;99154.41;5110615;28;20206;-64
2023/07/28 10:36:14;;;;;;;1.55;1.38;;;;;;;31.37;33.47;99155.19;5110376;28;20202;-64
2023/07/28 10:38:41;;;;;;;1.40;1.30;;;;;;;31.50;31.02;99145.00;5110383;28;20205;-64
2023/07/28 10:41:16;;;;;;;1.75;1.50;;;;;;;31.54;35.37;99138.22;5110206;28;20201;-64
2023/07/28 10:43:44;;;;;;;1.60;1.40;;;;;;;31.62;35.17;99129.06;5110381;28;20197;-64
2023/07/28 10:46:12;;;;;;;1.30;1.20;;;;;;;31.56;32.53;99130.03;5110190;28;20193;-64
2023/07/28 10:48:44;;;;;;;1.42;1.33;;;;;;;31.51;31.00;99129.97;5110173;28;20197;-65
2023/07/28 10:51:12;;;;;;;2.15;1.45;;;;;;;31.76;35.37;99127.59;5110076;28;20229;-64
2023/07/28 10:53:39;;;;;;;2.53;1.58;;;;;;;31.74;30.59;99119.13;5110076;28;20661;-64
2023/07/28 10:56:09;;;;;;;1.83;1.40;;;;;;;31.95;36.06;99114.88;5110090;28;20201;-64
2023/07/28 10:58:36;;;;;;;1.55;1.40;;;;;;;31.74;31.49;99116.50;5110236;28;20205;-65
2023/07/28 11:01:03;;;;;;;1.60;1.30;;;;;;;31.80;33.45;99106.78;5108826;28;20194;-64
2023/07/28 11:03:30;;;;;;;1.67;1.50;;;;;;;31.63;32.69;99106.84;5109779;28;20198;-64
2023/07/28 11:05:59;;;;;;;1.50;1.40;;;;;;;31.73;32.72;99104.31;5109829;28;20193;-64
2023/07/28 11:08:26;;;;;;;1.38;1.27;;;;;;;31.90;32.35;99104.25;5110146;28;20700;-64
2023/07/28 11:10:53;;;;;;;1.67;1.50;;;;;;;31.98;32.34;99103.78;5109532;28;20232;-64
2023/07/28 11:13:20;;;;;;;2.03;1.58;;;;;;;31.76;28.20;99106.44;5109668;28;20597;-64
2023/07/28 11:15:47;;;;;;;1.60;1.40;;;;;;;31.70;28.63;99106.66;5109635;28;20201;-64
2023/07/28 11:18:16;;;;;;;1.30;1.20;;;;;;;31.90;34.41;99090.19;5109893;28;20635;-64
2023/07/28 11:20:44;;;;;;;1.83;1.55;;;;;;;31.98;30.70;99093.22;5109498;28;20607;-64
2023/07/28 11:23:17;;;;;;;1.58;1.48;;;;;;;31.98;31.58;99092.41;5109421;28;20193;-64
2023/07/28 11:25:47;;;;;;;2.03;1.40;;;;;;;31.85;30.30;99087.50;5109256;28;20698;-64
2023/07/28 11:28:14;;;;;;;1.73;1.63;;;;;;;31.88;29.55;99089.63;5109268;28;20205;-64
2023/07/28 11:30:42;;;;;;;1.92;1.60;;;;;;;32.16;31.35;99083.31;5109079;28;20205;-64
2023/07/28 11:33:11;;;;;;;1.58;1.48;;;;;;;32.04;30.46;99096.72;5109547;28;20228;-64
2023/07/28 11:35:40;;;;;;;1.77;1.58;;;;;;;31.97;28.88;99086.34;5109272;28;20806;-64
2023/07/28 11:38:08;;;;;;;2.00;1.50;;;;;;;31.84;30.79;99091.19;5109272;28;20645;-64
2023/07/28 11:40:37;;;;;;;1.63;1.52;;;;;;;31.82;32.12;99080.06;5109214;28;20208;-64
2023/07/28 11:43:04;;;;;;;2.58;1.63;;;;;;;31.62;31.24;99076.19;5109244;28;20254;-64
2023/07/28 11:45:31;;;;;;;1.92;1.70;;;;;;;31.38;30.83;99073.00;5109285;28;20201;-64
2023/07/28 11:48:00;;;;;;;2.00;1.80;;;;;;;31.63;35.00;99075.13;5108936;28;20240;-64
2023/07/28 11:50:29;;;;;;;1.73;1.60;;;;;;;31.52;29.52;99081.34;5108744;28;20232;-64
2023/07/28 11:52:57;;;;;;;7.03;1.83;;;;;;;31.38;30.20;99072.22;5109036;28;20267;-64
2023/07/28 11:55:25;;;;;;;1.92;1.60;;;;;;;31.30;27.93;99076.03;5109007;28;20194;-64
2023/07/28 11:57:54;;;;;;;3.33;1.67;;;;;;;31.43;30.19;99072.28;5108834;28;20293;-64
2023/07/28 12:00:29;;;;;;;1.98;1.60;;;;;;;31.58;31.38;99060.00;5109139;28;20201;-64